Terminal Aerodrome Forecast
Issued by NWS Charleston, WV

Current Version | Previous Version | Graphics & Text | Print | Product List | Glossary On
Versions: 1 2 3 4 5 6 7 8 9 10 11 12 13 14 15 16 17 18 19 20 21 22 23 24
000
FTUS41 KRLX 282300 RRA
TAFPKB
TAF
KPKB 282343Z 2900/2924 31004KT P6SM FEW040 SCT080
     FM290900 00000KT 4SM BR SCT040
     FM291100 00000KT 1/4SM FG BKN001
     FM291200 00000KT 3SM BR BKN001
     FM291300 00000KT P6SM SCT030
     FM291600 29004KT P6SM SCT050=

USA.gov is the U.S. government's official web portal to all federal, state and local government web resources and services.